createdAt,value
2022-08-27T00:01:54.433Z,100885.44
2022-08-27T00:04:21.544Z,100881.53
2022-08-27T00:06:48.917Z,100890.84
2022-08-27T00:09:26.576Z,100885.72
2022-08-27T00:11:57.675Z,100884.44
2022-08-27T00:14:26.886Z,100890.56
2022-08-27T00:16:54.901Z,100891.06
2022-08-27T00:19:22.742Z,100897.03
2022-08-27T00:21:49.965Z,100892.59
2022-08-27T00:24:17.042Z,100888.91
2022-08-27T00:26:44.527Z,100890.41
2022-08-27T00:29:14.528Z,100896.44
2022-08-27T00:31:43.735Z,100886.63
2022-08-27T00:34:13.104Z,100888.53
2022-08-27T00:36:41.477Z,100885.63
2022-08-27T00:39:11.712Z,100889.03
2022-08-27T00:41:43.517Z,100889.66
2022-08-27T00:44:13.745Z,100886.13
2022-08-27T00:46:56.470Z,100889.63
2022-08-27T00:50:14.333Z,100888.53
2022-08-27T00:52:55.223Z,100885.75
2022-08-27T00:55:28.674Z,100893.06
2022-08-27T00:58:21.491Z,100895.03
2022-08-27T01:00:49.116Z,100892.06
2022-08-27T01:03:19.083Z,100894.94
2022-08-27T01:05:52.533Z,100892.16
2022-08-27T01:08:25.602Z,100899.53
2022-08-27T01:10:55.021Z,100902.47
2022-08-27T01:13:54.098Z,100908.06
2022-08-27T01:16:26.981Z,100914.00
2022-08-27T01:18:56.494Z,100915.13
2022-08-27T01:21:43.852Z,100924.91
2022-08-27T01:24:50.939Z,100923.75
2022-08-27T01:27:25.540Z,100927.66
2022-08-27T01:29:58.190Z,100919.50
2022-08-27T01:32:32.446Z,100917.81
2022-08-27T01:35:01.281Z,100918.41
2022-08-27T01:37:31.629Z,100927.50
2022-08-27T01:40:02.091Z,100923.28
2022-08-27T01:42:39.421Z,100935.22
2022-08-27T01:45:25.089Z,100927.34
2022-08-27T01:47:55.108Z,100921.44
2022-08-27T01:50:36.010Z,100924.56
2022-08-27T01:53:25.093Z,100930.44
2022-08-27T01:55:53.502Z,100931.31
2022-08-27T01:58:25.607Z,100933.31
2022-08-27T02:01:00.310Z,100929.34
2022-08-27T02:03:27.864Z,100920.59
2022-08-27T02:05:55.219Z,100924.19
2022-08-27T02:08:22.833Z,100921.19
2022-08-27T02:10:52.715Z,100918.78
2022-08-27T02:13:22.385Z,100924.94
2022-08-27T02:15:49.682Z,100920.84
2022-08-27T02:18:19.659Z,100924.44
2022-08-27T02:20:50.128Z,100916.75
2022-08-27T02:23:20.742Z,100921.19
2022-08-27T02:25:47.871Z,100918.69
2022-08-27T02:28:18.426Z,100917.72
2022-08-27T02:30:45.833Z,100918.44
2022-08-27T02:33:16.736Z,100914.94
2022-08-27T02:35:44.891Z,100911.91
2022-08-27T02:38:14.164Z,100911.44
2022-08-27T02:40:41.512Z,100906.28
2022-08-27T02:43:09.077Z,100912.78
2022-08-27T02:45:37.939Z,100912.19
2022-08-27T02:48:08.079Z,100908.34
2022-08-27T02:50:36.087Z,100907.84
2022-08-27T02:53:05.978Z,100893.69
2022-08-27T02:55:36.314Z,100913.63
2022-08-27T02:58:04.843Z,100912.28
2022-08-27T03:00:31.960Z,100904.16
2022-08-27T03:03:02.408Z,100908.91
2022-08-27T03:05:32.038Z,100908.09
2022-08-27T03:07:59.854Z,100905.59
2022-08-27T03:10:30.075Z,100917.59
2022-08-27T03:12:59.851Z,100911.94
2022-08-27T03:15:30.475Z,100913.38
2022-08-27T03:18:21.825Z,100918.06
2022-08-27T03:20:57.715Z,100911.59
2022-08-27T03:23:33.365Z,100913.41
2022-08-27T03:26:08.002Z,100915.06
2022-08-27T03:28:36.350Z,100911.72
2022-08-27T03:31:09.098Z,100908.97
2022-08-27T03:33:39.450Z,100914.84
2022-08-27T03:36:08.931Z,100917.84
2022-08-27T03:38:40.679Z,100915.69
2022-08-27T03:41:07.887Z,100909.81
2022-08-27T03:43:37.459Z,100915.69
2022-08-27T03:46:08.574Z,100916.63
2022-08-27T03:48:36.523Z,100913.38
2022-08-27T03:51:10.335Z,100916.88
2022-08-27T03:53:44.337Z,100915.66
2022-08-27T03:56:11.703Z,100914.47
2022-08-27T03:58:42.396Z,100914.47
2022-08-27T04:01:12.017Z,100922.50
2022-08-27T04:03:41.435Z,100921.19
2022-08-27T04:06:08.964Z,100922.88
2022-08-27T04:08:38.402Z,100922.28
2022-08-27T04:11:12.912Z,100913.97
2022-08-27T04:13:41.207Z,100923.13
2022-08-27T04:16:08.445Z,100919.88
2022-08-27T04:18:35.723Z,100913.28
2022-08-27T04:21:14.632Z,100912.78
2022-08-27T04:23:44.938Z,100912.69
2022-08-27T04:26:12.754Z,100918.81
2022-08-27T04:28:42.661Z,100921.31
2022-08-27T04:31:20.151Z,100926.25
2022-08-27T04:33:51.253Z,100920.34
2022-08-27T04:36:23.795Z,100920.47
2022-08-27T04:38:53.365Z,100921.78
2022-08-27T04:41:21.254Z,100919.03
2022-08-27T04:44:10.708Z,100921.44
2022-08-27T04:46:41.019Z,100930.44
2022-08-27T04:49:16.173Z,100926.13
2022-08-27T04:51:43.505Z,100925.03
2022-08-27T04:54:11.174Z,100925.78
2022-08-27T04:56:39.273Z,100924.22
2022-08-27T04:59:10.160Z,100930.41
2022-08-27T05:01:39.690Z,100933.28
2022-08-27T05:04:13.456Z,100920.69
2022-08-27T05:06:45.507Z,100926.91
2022-08-27T05:09:15.410Z,100919.34
2022-08-27T05:11:47.153Z,100929.78
2022-08-27T05:14:16.356Z,100926.69
2022-08-27T05:16:46.957Z,100922.75
2022-08-27T05:19:16.684Z,100925.03
2022-08-27T05:21:54.018Z,100920.59
2022-08-27T05:24:25.669Z,100922.41
2022-08-27T05:26:56.195Z,100932.38
2022-08-27T05:29:28.793Z,100930.81
2022-08-27T05:31:56.483Z,100922.41
2022-08-27T05:34:26.186Z,100934.53
2022-08-27T05:36:56.592Z,100930.31
2022-08-27T05:39:25.844Z,100933.81
2022-08-27T05:41:57.559Z,100936.81
2022-08-27T05:44:42.489Z,100936.69
2022-08-27T05:47:12.158Z,100939.44
2022-08-27T05:49:39.209Z,100940.78
2022-08-27T05:52:11.914Z,100936.69
2022-08-27T05:54:39.958Z,100940.91
2022-08-27T05:57:11.675Z,100943.56
2022-08-27T05:59:57.543Z,100944.00
2022-08-27T06:02:24.771Z,100946.88
2022-08-27T06:04:55.007Z,100947.44
2022-08-27T06:07:24.221Z,100951.41
2022-08-27T06:09:53.260Z,100944.56
2022-08-27T06:12:20.514Z,100952.69
2022-08-27T06:14:55.624Z,100954.00
2022-08-27T06:17:22.709Z,100958.94
2022-08-27T06:19:51.829Z,100958.94
2022-08-27T06:22:18.982Z,100956.41
2022-08-27T06:24:46.149Z,100958.81
2022-08-27T06:27:17.086Z,100953.75
2022-08-27T06:29:47.209Z,100953.50
2022-08-27T06:32:15.202Z,100948.59
2022-08-27T06:34:42.392Z,100954.13
2022-08-27T06:37:09.600Z,100953.41
2022-08-27T06:39:40.491Z,100963.84
2022-08-27T06:42:12.539Z,100960.03
2022-08-27T06:44:42.271Z,100966.50
2022-08-27T06:47:12.008Z,100959.88
2022-08-27T06:49:46.175Z,100960.72
2022-08-27T06:52:15.013Z,100964.06
2022-08-27T06:54:41.972Z,100966.09
2022-08-27T06:57:11.076Z,100960.44
2022-08-27T06:59:38.795Z,100967.38
2022-08-27T07:02:07.756Z,100957.44
2022-08-27T07:04:34.772Z,100955.09
2022-08-27T07:07:05.922Z,100960.53
2022-08-27T07:09:34.805Z,100962.97
2022-08-27T07:12:02.462Z,100967.84
2022-08-27T07:14:37.792Z,100959.75
2022-08-27T07:17:10.831Z,100969.50
2022-08-27T07:19:42.848Z,100965.41
2022-08-27T07:22:12.989Z,100962.31
2022-08-27T07:24:40.156Z,100965.75
2022-08-27T07:27:08.291Z,100969.97
2022-08-27T07:29:35.559Z,100970.25
2022-08-27T07:32:02.923Z,100969.31
2022-08-27T07:34:30.075Z,100971.94
2022-08-27T07:36:57.116Z,100968.78
2022-08-27T07:39:24.257Z,100980.69
2022-08-27T07:42:15.995Z,100978.66
2022-08-27T07:44:45.692Z,100981.38
2022-08-27T07:47:14.875Z,100979.44
2022-08-27T07:49:44.292Z,100984.78
2022-08-27T07:52:11.975Z,100992.47
2022-08-27T07:54:39.293Z,100993.06
2022-08-27T07:57:06.540Z,100994.28
2022-08-27T07:59:33.626Z,101001.28
2022-08-27T08:02:03.360Z,101006.13
2022-08-27T08:04:30.683Z,101000.38
2022-08-27T08:07:00.295Z,100998.31
2022-08-27T08:09:27.534Z,101014.28
2022-08-27T08:11:54.866Z,101001.63
2022-08-27T08:14:22.301Z,101014.63
2022-08-27T08:16:52.301Z,101008.47
2022-08-27T08:19:22.279Z,101011.50
2022-08-27T08:21:56.495Z,101011.41
2022-08-27T08:24:27.036Z,101019.00
2022-08-27T08:26:56.145Z,101020.44
2022-08-27T08:29:30.227Z,101022.38
2022-08-27T08:31:57.265Z,101032.69
2022-08-27T08:34:24.259Z,101031.88
2022-08-27T08:36:54.894Z,101036.78
2022-08-27T08:39:26.366Z,101037.03
2022-08-27T08:42:00.464Z,101040.16
2022-08-27T08:44:46.321Z,101047.47
2022-08-27T08:47:45.954Z,101045.69
2022-08-27T08:50:30.876Z,101045.47
2022-08-27T08:53:21.191Z,101045.22
2022-08-27T08:55:59.385Z,101048.94
2022-08-27T08:58:53.297Z,101049.19
2022-08-27T09:01:21.841Z,101040.03
2022-08-27T09:03:58.474Z,101048.56
2022-08-27T09:06:43.432Z,101047.25
2022-08-27T09:09:49.347Z,101053.38
2022-08-27T09:12:25.022Z,101059.00
2022-08-27T09:15:19.210Z,101056.59
2022-08-27T09:17:47.752Z,101059.13
2022-08-27T09:20:22.786Z,101060.78
2022-08-27T09:23:14.945Z,101069.94
2022-08-27T09:25:43.612Z,101063.44
2022-08-27T09:28:36.482Z,101067.88
2022-08-27T09:31:13.541Z,101064.66
2022-08-27T09:33:56.258Z,101063.69
2022-08-27T09:36:24.586Z,101073.91
2022-08-27T09:39:01.858Z,101068.50
2022-08-27T09:41:36.716Z,101073.06
2022-08-27T09:44:11.951Z,101072.47
2022-08-27T09:46:58.039Z,101070.88
2022-08-27T09:49:26.957Z,101068.03
2022-08-27T09:51:55.805Z,101073.81
2022-08-27T09:54:45.036Z,101066.47
2022-08-27T09:57:15.153Z,101069.25
2022-08-27T09:59:57.593Z,101070.88
2022-08-27T10:02:28.171Z,101069.69
2022-08-27T10:05:00.999Z,101076.06
2022-08-27T10:07:53.913Z,101076.16
2022-08-27T10:10:55.478Z,101076.41
2022-08-27T10:13:33.817Z,101080.31
2022-08-27T10:16:26.381Z,101075.94
2022-08-27T10:19:20.388Z,101080.66
2022-08-27T10:22:19.185Z,101074.41
2022-08-27T10:25:07.155Z,101083.91
2022-08-27T10:28:05.065Z,101074.91
2022-08-27T10:30:57.163Z,101084.28
2022-08-27T10:33:59.683Z,101078.03
2022-08-27T10:36:44.634Z,101079.47
2022-08-27T10:39:42.970Z,101088.59
2022-08-27T10:42:21.671Z,101082.59
2022-08-27T10:45:12.359Z,101083.19
2022-08-27T10:47:57.386Z,101090.66
2022-08-27T10:51:02.066Z,101085.06
2022-08-27T10:53:55.511Z,101091.31
2022-08-27T10:56:32.401Z,101082.28
2022-08-27T10:59:16.656Z,101087.44
2022-08-27T11:02:15.221Z,101097.53
2022-08-27T11:04:53.106Z,101086.97
2022-08-27T11:07:33.545Z,101084.44
2022-08-27T11:10:06.159Z,101085.47
2022-08-27T11:12:41.440Z,101084.94
2022-08-27T11:15:42.116Z,101088.88
2022-08-27T11:18:22.184Z,101085.31
2022-08-27T11:21:05.819Z,101090.28
2022-08-27T11:23:58.235Z,101087.00
2022-08-27T11:26:27.843Z,101091.19
2022-08-27T11:29:00.435Z,101091.41
2022-08-27T11:31:53.242Z,101094.50
2022-08-27T11:34:39.795Z,101092.81
2022-08-27T11:37:30.589Z,101092.09
2022-08-27T11:40:54.262Z,101090.19
2022-08-27T11:43:26.594Z,101100.56
2022-08-27T11:46:06.780Z,101094.13
2022-08-27T11:48:57.702Z,101102.06
2022-08-27T11:51:35.810Z,101104.81
2022-08-27T11:54:13.427Z,101104.00
2022-08-27T11:56:43.529Z,101106.97
2022-08-27T11:59:23.811Z,101106.38
2022-08-27T12:01:56.974Z,101103.31
2022-08-27T12:04:44.322Z,101100.59
2022-08-27T12:07:14.313Z,101096.38
2022-08-27T12:09:56.202Z,101100.72
2022-08-27T12:12:53.176Z,101103.31
2022-08-27T12:15:35.142Z,101102.13
2022-08-27T12:18:34.074Z,101097.44
2022-08-27T12:21:39.551Z,101101.97
2022-08-27T12:24:21.445Z,101102.03
2022-08-27T12:27:15.670Z,101102.44
2022-08-27T12:29:56.476Z,101100.91
2022-08-27T12:32:30.668Z,101101.75
2022-08-27T12:35:07.056Z,101100.00
2022-08-27T12:38:15.957Z,101096.13
2022-08-27T12:41:03.842Z,101094.34
2022-08-27T12:43:35.666Z,101105.69
2022-08-27T12:46:18.040Z,101097.00
2022-08-27T12:48:48.283Z,101084.63
2022-08-27T12:51:33.327Z,101098.81
2022-08-27T12:54:47.593Z,101101.41
2022-08-27T12:57:46.180Z,101100.16
2022-08-27T13:00:26.262Z,101096.84
2022-08-27T13:03:35.701Z,101099.69
2022-08-27T13:06:02.766Z,101096.03
2022-08-27T13:08:34.647Z,101108.28
2022-08-27T13:11:18.140Z,101113.84
2022-08-27T13:13:47.774Z,101112.47
2022-08-27T13:16:20.273Z,101106.88
2022-08-27T13:18:51.831Z,101103.75
2022-08-27T13:21:27.545Z,101111.59
2022-08-27T13:24:00.675Z,101112.56
2022-08-27T13:26:34.062Z,101109.78
2022-08-27T13:29:05.902Z,101109.56
2022-08-27T13:31:36.622Z,101112.38
2022-08-27T13:34:06.191Z,101104.50
2022-08-27T13:36:55.739Z,101107.06
2022-08-27T13:39:23.114Z,101099.41
2022-08-27T13:41:52.592Z,101105.41
2022-08-27T13:44:32.964Z,101099.44
2022-08-27T13:47:03.946Z,101101.06
2022-08-27T13:49:40.156Z,101093.81
2022-08-27T13:52:28.580Z,101091.81
2022-08-27T13:55:16.447Z,101085.34
2022-08-27T13:57:50.380Z,101097.69
2022-08-27T14:00:29.787Z,101093.28
2022-08-27T14:02:58.849Z,101095.66
2022-08-27T14:05:26.897Z,101099.13
2022-08-27T14:08:01.075Z,101096.31
2022-08-27T14:10:44.286Z,101095.22
2022-08-27T14:13:21.087Z,101093.38
2022-08-27T14:15:54.670Z,101091.19
2022-08-27T14:21:25.854Z,101082.47
2022-08-27T14:23:54.031Z,101081.38
2022-08-27T14:26:21.433Z,101074.09
2022-08-27T14:28:51.154Z,101079.09
2022-08-27T14:31:23.232Z,101088.59
2022-08-27T14:33:56.795Z,101084.38
2022-08-27T14:36:37.416Z,101079.66
2022-08-27T14:39:08.643Z,101084.25
2022-08-27T14:41:36.104Z,101080.88
2022-08-27T14:44:03.355Z,101088.84
2022-08-27T14:46:36.270Z,101076.94
2022-08-27T14:49:22.118Z,101082.78
2022-08-27T14:51:49.266Z,101080.34
2022-08-27T14:54:16.197Z,101076.81
2022-08-27T14:56:43.266Z,101079.97
2022-08-27T14:59:10.230Z,101081.38
2022-08-27T15:01:39.955Z,101076.88
2022-08-27T15:04:07.770Z,101069.91
2022-08-27T15:06:34.828Z,101073.81
2022-08-27T15:09:01.864Z,101071.59
2022-08-27T15:11:35.321Z,101074.94
2022-08-27T15:14:09.331Z,101074.66
2022-08-27T15:16:42.521Z,101076.03
2022-08-27T15:19:16.422Z,101079.94
2022-08-27T15:21:49.204Z,101079.00
2022-08-27T15:24:24.925Z,101072.38
2022-08-27T15:26:57.339Z,101072.94
2022-08-27T15:29:27.587Z,101068.94
2022-08-27T15:31:54.563Z,101068.44
2022-08-27T15:34:21.744Z,101071.25
2022-08-27T15:36:50.950Z,101075.72
2022-08-27T15:39:17.850Z,101060.09
2022-08-27T15:42:05.703Z,101067.38
2022-08-27T15:44:32.057Z,101069.91
2022-08-27T15:46:59.111Z,101067.38
2022-08-27T15:49:30.797Z,101054.00
2022-08-27T15:52:00.819Z,101063.75
2022-08-27T15:54:28.334Z,101065.72
2022-08-27T15:57:00.638Z,101058.72
2022-08-27T15:59:28.030Z,101059.13
2022-08-27T16:01:58.004Z,101064.34
2022-08-27T16:04:24.912Z,101061.63
2022-08-27T16:06:51.811Z,101065.03
2022-08-27T16:09:19.282Z,101060.03
2022-08-27T16:11:46.193Z,101058.38
2022-08-27T16:14:17.715Z,101057.25
2022-08-27T16:16:50.019Z,101062.59
2022-08-27T16:19:19.810Z,101067.66
2022-08-27T16:21:47.840Z,101062.59
2022-08-27T16:24:19.082Z,101055.97
2022-08-27T16:26:49.363Z,101058.00
2022-08-27T16:29:16.550Z,101053.03
2022-08-27T16:31:43.754Z,101052.38
2022-08-27T16:34:18.376Z,101063.50
2022-08-27T16:36:49.847Z,101063.28
2022-08-27T16:39:16.755Z,101068.66
2022-08-27T16:41:43.700Z,101062.84
2022-08-27T16:44:11.000Z,101065.53
2022-08-27T16:46:38.294Z,101063.19
2022-08-27T16:49:26.149Z,101062.91
2022-08-27T16:51:53.154Z,101069.22
2022-08-27T16:54:21.398Z,101068.09
2022-08-27T16:56:50.842Z,101075.13
2022-08-27T16:59:21.209Z,101073.06
2022-08-27T17:01:54.245Z,101074.34
2022-08-27T17:04:31.224Z,101078.47
2022-08-27T17:07:02.353Z,101079.09
2022-08-27T17:09:30.563Z,101077.94
2022-08-27T17:11:58.732Z,101085.84
2022-08-27T17:14:26.796Z,101075.91
2022-08-27T17:16:54.063Z,101088.88
2022-08-27T17:19:26.151Z,101078.09
2022-08-27T17:21:54.823Z,101079.03
2022-08-27T17:24:22.293Z,101080.13
2022-08-27T17:26:51.472Z,101090.13
2022-08-27T17:29:19.754Z,101095.66
2022-08-27T17:31:46.673Z,101096.06
2022-08-27T17:34:19.519Z,101098.34
2022-08-27T17:36:52.101Z,101104.22
2022-08-27T17:39:22.644Z,101102.00
2022-08-27T17:41:53.388Z,101099.50
2022-08-27T17:44:35.677Z,101098.91
2022-08-27T17:47:08.200Z,101102.97
2022-08-27T17:49:36.202Z,101101.16
2022-08-27T17:52:10.400Z,101108.56
2022-08-27T17:54:46.414Z,101118.25
2022-08-27T17:57:36.162Z,101116.47
2022-08-27T18:00:14.323Z,101121.03
2022-08-27T18:02:48.126Z,101123.22
2022-08-27T18:05:18.270Z,101122.63
2022-08-27T18:07:47.109Z,101129.75
2022-08-27T18:10:23.795Z,101132.50
2022-08-27T18:12:55.458Z,101131.75
2022-08-27T18:15:32.103Z,101130.34
2022-08-27T18:18:01.965Z,101132.03
2022-08-27T18:20:33.132Z,101144.28
2022-08-27T18:23:00.335Z,101140.41
2022-08-27T18:25:36.331Z,101142.94
2022-08-27T18:28:08.230Z,101147.16
2022-08-27T18:30:39.585Z,101150.53
2022-08-27T18:33:09.091Z,101151.59
2022-08-27T18:35:37.786Z,101150.06
2022-08-27T18:38:09.633Z,101141.41
2022-08-27T18:40:51.778Z,101161.72
2022-08-27T18:43:21.294Z,101164.78
2022-08-27T18:45:50.944Z,101161.88
2022-08-27T18:48:22.463Z,101171.72
2022-08-27T18:50:58.490Z,101167.50
2022-08-27T18:53:31.000Z,101165.06
2022-08-27T18:55:58.851Z,101168.16
2022-08-27T18:58:26.646Z,101173.47
2022-08-27T19:01:02.147Z,101172.06
2022-08-27T19:03:35.707Z,101164.75
2022-08-27T19:06:08.862Z,101176.56
2022-08-27T19:08:40.364Z,101171.00
2022-08-27T19:11:10.171Z,101174.81
2022-08-27T19:13:37.542Z,101179.34
2022-08-27T19:16:33.434Z,101175.28
2022-08-27T19:19:00.528Z,101188.91
2022-08-27T19:21:27.445Z,101183.41
2022-08-27T19:23:57.950Z,101188.75
2022-08-27T19:26:25.877Z,101189.22
2022-08-27T19:28:56.282Z,101196.56
2022-08-27T19:31:23.365Z,101188.59
2022-08-27T19:33:52.870Z,101187.53
2022-08-27T19:36:23.483Z,101194.81
2022-08-27T19:38:54.207Z,101190.38
2022-08-27T19:41:26.062Z,101199.28
2022-08-27T19:43:57.281Z,101199.53
2022-08-27T19:46:28.957Z,101201.44
2022-08-27T19:48:58.136Z,101203.81
2022-08-27T19:51:25.293Z,101212.75
2022-08-27T19:53:56.693Z,101209.72
2022-08-27T19:56:23.695Z,101213.31
2022-08-27T19:58:56.593Z,101225.56
2022-08-27T20:01:25.659Z,101209.66
2022-08-27T20:03:52.617Z,101215.78
2022-08-27T20:06:27.117Z,101215.94
2022-08-27T20:08:57.223Z,101214.66
2022-08-27T20:11:24.239Z,101218.88
2022-08-27T20:13:51.210Z,101215.22
2022-08-27T20:16:20.413Z,101216.16
2022-08-27T20:18:50.278Z,101213.66
2022-08-27T20:21:17.219Z,101213.22
2022-08-27T20:23:44.168Z,101224.25
2022-08-27T20:26:14.114Z,101216.28
2022-08-27T20:28:41.719Z,101213.75
2022-08-27T20:31:09.106Z,101211.41
2022-08-27T20:33:36.192Z,101220.72
2022-08-27T20:36:06.182Z,101219.47
2022-08-27T20:38:33.329Z,101217.41
2022-08-27T20:41:02.985Z,101211.69
2022-08-27T20:43:32.081Z,101214.66
2022-08-27T20:45:59.946Z,101217.56
2022-08-27T20:48:29.924Z,101214.59
2022-08-27T20:50:59.150Z,101217.59
2022-08-27T20:53:28.388Z,101222.22
2022-08-27T20:55:57.418Z,101224.34
2022-08-27T20:58:46.083Z,101220.19
2022-08-27T21:01:14.577Z,101218.94
2022-08-27T21:03:44.481Z,101216.91
2022-08-27T21:06:11.515Z,101222.84
2022-08-27T21:08:39.829Z,101220.66
2022-08-27T21:11:16.091Z,101227.53
2022-08-27T21:13:55.797Z,101230.78
2022-08-27T21:16:24.963Z,101227.53
2022-08-27T21:18:53.687Z,101232.56
2022-08-27T21:21:20.721Z,101232.41
2022-08-27T21:23:48.782Z,101236.44
2022-08-27T21:26:20.114Z,101229.47
2022-08-27T21:28:49.261Z,101235.19
2022-08-27T21:31:22.655Z,101231.38
2022-08-27T21:33:52.229Z,101235.41
2022-08-27T21:36:19.294Z,101239.88
2022-08-27T21:38:46.211Z,101233.94
2022-08-27T21:41:16.123Z,101231.19
2022-08-27T21:43:43.047Z,101234.56
2022-08-27T21:46:12.068Z,101226.53
2022-08-27T21:48:41.667Z,101238.97
2022-08-27T21:51:15.490Z,101224.66
2022-08-27T21:53:54.914Z,101225.06
2022-08-27T21:56:21.814Z,101226.81
2022-08-27T21:58:48.703Z,101230.59
2022-08-27T22:01:22.861Z,101224.66
2022-08-27T22:03:55.214Z,101224.88
2022-08-27T22:06:24.456Z,101223.41
2022-08-27T22:08:51.302Z,101227.63
2022-08-27T22:11:21.997Z,101228.06
2022-08-27T22:13:51.475Z,101217.91
2022-08-27T22:16:18.531Z,101231.88
2022-08-27T22:18:45.568Z,101231.03
2022-08-27T22:21:12.650Z,101228.28
2022-08-27T22:23:39.605Z,101225.75
2022-08-27T22:26:11.958Z,101225.97
2022-08-27T22:28:40.948Z,101220.03
2022-08-27T22:31:08.268Z,101228.50
2022-08-27T22:33:35.247Z,101246.69
2022-08-27T22:36:02.373Z,101232.31
2022-08-27T22:38:29.320Z,101234.84
2022-08-27T22:40:56.289Z,101231.66
2022-08-27T22:43:26.194Z,101230.19
2022-08-27T22:45:53.101Z,101232.31
2022-08-27T22:48:20.023Z,101226.81
2022-08-27T22:50:46.960Z,101232.72
2022-08-27T22:53:16.314Z,101236.53
2022-08-27T22:55:49.866Z,101224.47
2022-08-27T22:58:24.380Z,101231.44
2022-08-27T23:00:56.693Z,101234.19
2022-08-27T23:03:23.612Z,101224.06
2022-08-27T23:05:50.589Z,101231.44
2022-08-27T23:08:19.750Z,101225.97
2022-08-27T23:10:46.639Z,101228.91
2022-08-27T23:13:15.921Z,101229.34
2022-08-27T23:15:42.928Z,101237.13
2022-08-27T23:18:12.360Z,101230.91
2022-08-27T23:20:41.957Z,101229.25
2022-08-27T23:23:10.139Z,101226.91
2022-08-27T23:25:56.432Z,101231.34
2022-08-27T23:28:23.906Z,101223.13
2022-08-27T23:30:52.965Z,101222.47
2022-08-27T23:33:20.100Z,101221.63
2022-08-27T23:35:50.321Z,101217.84
2022-08-27T23:38:19.596Z,101225.50
2022-08-27T23:40:48.163Z,101222.91
2022-08-27T23:43:16.766Z,101217.44
2022-08-27T23:45:43.816Z,101225.44
2022-08-27T23:48:11.290Z,101217.00
2022-08-27T23:50:38.893Z,101222.00
2022-08-27T23:53:07.345Z,101225.78
2022-08-27T23:55:38.493Z,101232.63
2022-08-27T23:58:06.838Z,101233.00
